Time;durP1;ratioP1;P1;durP2;ratioP2;P2;SDS_P1;SDS_P2;PMS_P1;PMS_P2;Temp;Humidity;BMP_temperature;BMP_pressure;BME280_temperature;BME280_humidity;BME280_pressure;Samples;Min_cycle;Max_cycle;Signal;HPM_P1;HPM_P2
2021/11/26 00:01:08;;;;;;;;;14.50;9.75;;;;;;;;5071671;27;49692;-65
2021/11/26 00:03:33;;;;;;;;;11.75;10.50;;;;;;;;5071650;28;49637;-65
2021/11/26 00:05:59;;;;;;;;;16.00;13.50;;;;;;;;5071610;27;49672;-67
2021/11/26 00:08:24;;;;;;;;;7.50;7.50;;;;;;;;5071918;28;49911;-75
2021/11/26 00:10:49;;;;;;;;;7.25;5.50;;;;;;;;5071437;27;50638;-67
2021/11/26 00:13:15;;;;;;;;;10.00;10.00;;;;;;;;5071581;27;49906;-74
2021/11/26 00:15:41;;;;;;;;;11.75;9.50;;;;;;;;5071793;27;49802;-75
2021/11/26 00:18:17;;;;;;;;;13.00;10.25;;;;;;;;5071700;27;49793;-66
2021/11/26 00:20:43;;;;;;;;;11.25;9.75;;;;;;;;5071349;27;50525;-76
2021/11/26 00:23:08;;;;;;;;;12.00;11.25;;;;;;;;5071231;27;49692;-75
2021/11/26 00:25:34;;;;;;;;;9.25;7.50;;;;;;;;5071615;28;49930;-76
2021/11/26 00:27:59;;;;;;;;;10.00;8.00;;;;;;;;5071593;27;49718;-74
2021/11/26 00:30:25;;;;;;;;;13.00;12.50;;;;;;;;5071304;27;50352;-72
2021/11/26 00:32:50;;;;;;;;;11.75;10.75;;;;;;;;5070989;28;49693;-76
2021/11/26 00:35:15;;;;;;;;;11.75;11.75;;;;;;;;5071186;27;49734;-65
2021/11/26 00:37:41;;;;;;;;;10.00;8.25;;;;;;;;5071692;28;49997;-65
2021/11/26 00:40:06;;;;;;;;;11.00;7.50;;;;;;;;5070880;27;49876;-65
2021/11/26 00:42:32;;;;;;;;;9.25;9.25;;;;;;;;5071218;27;50622;-64
2021/11/26 00:44:57;;;;;;;;;9.50;9.00;;;;;;;;5071263;27;49740;-65
2021/11/26 00:47:22;;;;;;;;;11.25;10.75;;;;;;;;5071367;27;49916;-67
2021/11/26 00:49:48;;;;;;;;;11.25;8.25;;;;;;;;5070828;28;49787;-65
2021/11/26 00:52:13;;;;;;;;;15.50;12.00;;;;;;;;5071078;28;49717;-68
2021/11/26 00:54:38;;;;;;;;;12.75;11.75;;;;;;;;5071005;27;49777;-66
2021/11/26 00:57:08;;;;;;;;;11.75;11.25;;;;;;;;5071355;27;50154;-74
2021/11/26 00:59:34;;;;;;;;;18.25;14.00;;;;;;;;5070883;27;50698;-66
2021/11/26 01:01:59;;;;;;;;;11.50;10.50;;;;;;;;5070855;27;49775;-65
2021/11/26 01:04:24;;;;;;;;;14.50;10.50;;;;;;;;5069576;28;49886;-66
2021/11/26 01:06:49;;;;;;;;;13.25;11.50;;;;;;;;5071164;27;49765;-65
2021/11/26 01:09:14;;;;;;;;;17.50;14.50;;;;;;;;5070631;27;49797;-68
2021/11/26 01:11:40;;;;;;;;;11.25;10.00;;;;;;;;5071024;27;49975;-65
2021/11/26 01:14:05;;;;;;;;;11.25;11.25;;;;;;;;5070695;27;49818;-65
2021/11/26 01:16:30;;;;;;;;;14.00;10.00;;;;;;;;5071073;27;49837;-65
2021/11/26 01:18:55;;;;;;;;;11.50;10.00;;;;;;;;5070401;27;50520;-65
2021/11/26 01:21:21;;;;;;;;;10.75;10.75;;;;;;;;5070454;27;49916;-66
2021/11/26 01:23:46;;;;;;;;;15.50;13.25;;;;;;;;5070793;28;49840;-65
2021/11/26 01:26:11;;;;;;;;;10.00;10.00;;;;;;;;5071017;27;49762;-66
2021/11/26 01:28:36;;;;;;;;;11.00;10.75;;;;;;;;5070585;27;50041;-66
2021/11/26 01:31:02;;;;;;;;;11.75;11.75;;;;;;;;5070635;27;49829;-66
2021/11/26 01:33:27;;;;;;;;;11.25;11.25;;;;;;;;5070607;27;49960;-65
2021/11/26 01:35:54;;;;;;;;;11.00;10.75;;;;;;;;5070639;28;49807;-65
2021/11/26 01:38:20;;;;;;;;;11.50;11.50;;;;;;;;5070109;27;49787;-65
2021/11/26 01:40:46;;;;;;;;;11.50;10.00;;;;;;;;5070480;27;49661;-65
2021/11/26 01:43:12;;;;;;;;;13.75;10.50;;;;;;;;5070671;28;49635;-66
2021/11/26 01:45:42;;;;;;;;;11.75;11.75;;;;;;;;5074379;27;49713;-65
2021/11/26 01:48:07;;;;;;;;;9.50;8.00;;;;;;;;5073911;27;50556;-66
2021/11/26 01:50:33;;;;;;;;;10.75;10.75;;;;;;;;5073556;28;49946;-67
2021/11/26 01:52:58;;;;;;;;;10.25;9.50;;;;;;;;5073816;27;49947;-65
2021/11/26 01:55:23;;;;;;;;;11.25;10.00;;;;;;;;5074012;27;49838;-65
2021/11/26 01:57:48;;;;;;;;;15.75;14.00;;;;;;;;5073834;27;50640;-65
2021/11/26 02:00:16;;;;;;;;;10.25;10.25;;;;;;;;5073809;27;49758;-65
2021/11/26 02:02:41;;;;;;;;;16.50;13.50;;;;;;;;5073908;27;49526;-65
2021/11/26 02:05:07;;;;;;;;;10.50;10.50;;;;;;;;5073688;27;49673;-66
2021/11/26 02:07:32;;;;;;;;;13.75;12.75;;;;;;;;5073479;27;49740;-65
2021/11/26 02:09:58;;;;;;;;;10.75;10.00;;;;;;;;5073577;28;49775;-65
2021/11/26 02:12:23;;;;;;;;;10.00;9.25;;;;;;;;5073705;28;49753;-65
2021/11/26 02:14:48;;;;;;;;;11.50;9.50;;;;;;;;5073699;28;49706;-65
2021/11/26 02:17:14;;;;;;;;;13.50;11.00;;;;;;;;5073516;27;50379;-65
2021/11/26 02:19:39;;;;;;;;;13.25;12.75;;;;;;;;5073514;27;49704;-66
2021/11/26 02:22:04;;;;;;;;;15.75;13.75;;;;;;;;5073401;28;49879;-66
2021/11/26 02:24:30;;;;;;;;;11.00;10.00;;;;;;;;5073609;27;49798;-67
2021/11/26 02:26:55;;;;;;;;;9.50;9.50;;;;;;;;5073483;27;49772;-69
2021/11/26 02:29:21;;;;;;;;;9.25;8.50;;;;;;;;5073085;27;49696;-74
2021/11/26 02:31:46;;;;;;;;;14.50;10.75;;;;;;;;5073348;27;49753;-70
2021/11/26 02:34:13;;;;;;;;;9.50;8.50;;;;;;;;5073348;27;49996;-75
2021/11/26 02:36:39;;;;;;;;;10.25;9.00;;;;;;;;5073095;28;50120;-67
2021/11/26 02:39:09;;;;;;;;;11.00;11.00;;;;;;;;5073168;27;49914;-66
2021/11/26 02:41:35;;;;;;;;;12.25;10.50;;;;;;;;5073401;28;49890;-66
2021/11/26 02:44:01;;;;;;;;;11.25;11.25;;;;;;;;5073360;27;49581;-66
2021/11/26 02:46:26;;;;;;;;;11.50;10.75;;;;;;;;5072987;27;50896;-69
2021/11/26 02:48:51;;;;;;;;;9.75;9.75;;;;;;;;5072638;28;49742;-75
2021/11/26 02:51:16;;;;;;;;;10.00;9.75;;;;;;;;5073264;27;50255;-65
2021/11/26 02:53:41;;;;;;;;;10.75;10.75;;;;;;;;5073259;27;49925;-72
2021/11/26 02:56:07;;;;;;;;;11.00;10.00;;;;;;;;5072352;28;49634;-65
2021/11/26 02:58:32;;;;;;;;;12.00;10.50;;;;;;;;5073065;27;49701;-66
2021/11/26 03:00:58;;;;;;;;;13.00;11.00;;;;;;;;5073024;28;50180;-70
2021/11/26 03:03:24;;;;;;;;;9.50;9.50;;;;;;;;5072820;27;49683;-65
2021/11/26 03:05:49;;;;;;;;;13.50;9.75;;;;;;;;5072581;28;50724;-76
2021/11/26 03:08:14;;;;;;;;;12.25;10.50;;;;;;;;5072740;28;49702;-75
2021/11/26 03:10:39;;;;;;;;;9.50;7.00;;;;;;;;5072864;27;49863;-73
2021/11/26 03:13:06;;;;;;;;;15.25;10.50;;;;;;;;5072908;28;49793;-74
2021/11/26 03:15:34;;;;;;;;;11.00;10.00;;;;;;;;5072442;27;50537;-76
2021/11/26 03:17:59;;;;;;;;;12.00;12.00;;;;;;;;5072785;27;49840;-72
2021/11/26 03:20:26;;;;;;;;;12.00;9.50;;;;;;;;5072244;28;49751;-77
2021/11/26 03:22:51;;;;;;;;;12.25;12.25;;;;;;;;5072625;27;49947;-74
2021/11/26 03:25:17;;;;;;;;;14.00;13.00;;;;;;;;5072352;28;50824;-76
2021/11/26 03:27:43;;;;;;;;;12.00;11.00;;;;;;;;5072447;27;49730;-70
2021/11/26 03:30:09;;;;;;;;;12.75;11.75;;;;;;;;5072492;27;49743;-66
2021/11/26 03:32:34;;;;;;;;;19.25;11.50;;;;;;;;5072681;27;49833;-66
2021/11/26 03:34:59;;;;;;;;;18.25;14.00;;;;;;;;5071914;27;49640;-67
2021/11/26 03:37:24;;;;;;;;;18.50;13.25;;;;;;;;5072398;27;49666;-71
2021/11/26 03:39:50;;;;;;;;;16.00;16.00;;;;;;;;5072340;28;49518;-68
2021/11/26 03:42:15;;;;;;;;;14.00;12.50;;;;;;;;5072676;27;49475;-74
2021/11/26 03:44:40;;;;;;;;;18.25;16.00;;;;;;;;5072021;27;49712;-72
2021/11/26 03:47:05;;;;;;;;;14.00;14.00;;;;;;;;5072183;27;49958;-75
2021/11/26 03:49:31;;;;;;;;;13.00;13.00;;;;;;;;5071703;27;50254;-75
2021/11/26 03:51:56;;;;;;;;;16.00;13.50;;;;;;;;5072395;27;50012;-72
2021/11/26 03:54:21;;;;;;;;;11.00;11.00;;;;;;;;5071828;27;50337;-67
2021/11/26 03:56:47;;;;;;;;;18.00;15.00;;;;;;;;5071584;27;50002;-66
2021/11/26 03:59:12;;;;;;;;;20.50;18.00;;;;;;;;5072086;28;49922;-71
2021/11/26 04:01:37;;;;;;;;;14.00;12.25;;;;;;;;5072113;27;49523;-66
2021/11/26 04:04:02;;;;;;;;;14.00;12.75;;;;;;;;5069904;28;50771;-73
2021/11/26 04:06:28;;;;;;;;;15.75;14.25;;;;;;;;5070941;27;49732;-69
2021/11/26 04:08:53;;;;;;;;;19.75;17.50;;;;;;;;5071746;27;49867;-75
2021/11/26 04:11:18;;;;;;;;;15.00;11.75;;;;;;;;5072146;27;49780;-72
2021/11/26 04:13:44;;;;;;;;;21.25;14.50;;;;;;;;5071646;27;51007;-73
2021/11/26 04:16:12;;;;;;;;;17.75;14.00;;;;;;;;5071489;27;49854;-66
2021/11/26 04:18:38;;;;;;;;;15.00;14.75;;;;;;;;5071449;28;49762;-73
2021/11/26 04:21:03;;;;;;;;;19.50;15.00;;;;;;;;5071681;27;49883;-68
2021/11/26 04:23:29;;;;;;;;;17.25;15.00;;;;;;;;5071340;27;49644;-65
2021/11/26 04:25:55;;;;;;;;;18.50;15.00;;;;;;;;5070058;28;49940;-69
2021/11/26 04:28:20;;;;;;;;;18.00;14.00;;;;;;;;5071729;28;49677;-71
2021/11/26 04:30:45;;;;;;;;;18.25;18.25;;;;;;;;5071711;27;49535;-66
2021/11/26 04:33:10;;;;;;;;;18.00;17.00;;;;;;;;5071237;28;50518;-66
2021/11/26 04:35:36;;;;;;;;;25.50;18.00;;;;;;;;5071241;28;49920;-74
2021/11/26 04:38:01;;;;;;;;;23.50;20.75;;;;;;;;5071587;27;49547;-66
2021/11/26 04:40:26;;;;;;;;;21.75;21.25;;;;;;;;5071734;28;49708;-65
2021/11/26 04:42:51;;;;;;;;;18.00;17.00;;;;;;;;5071162;27;50819;-71
2021/11/26 04:45:17;;;;;;;;;18.50;14.00;;;;;;;;5071603;27;49893;-67
2021/11/26 04:47:42;;;;;;;;;23.25;18.25;;;;;;;;5071555;27;49758;-75
2021/11/26 04:50:08;;;;;;;;;18.25;18.00;;;;;;;;5071163;28;49754;-72
2021/11/26 04:52:33;;;;;;;;;15.75;15.75;;;;;;;;5071416;27;49863;-67
2021/11/26 04:54:59;;;;;;;;;13.75;13.75;;;;;;;;5071038;27;49736;-66
2021/11/26 04:57:24;;;;;;;;;19.00;18.00;;;;;;;;5071081;27;50119;-69
2021/11/26 04:59:49;;;;;;;;;16.75;16.75;;;;;;;;5071385;27;49638;-66
2021/11/26 05:02:15;;;;;;;;;22.00;17.00;;;;;;;;5070723;27;49719;-67
2021/11/26 05:04:40;;;;;;;;;23.00;20.00;;;;;;;;5070678;27;49611;-69
2021/11/26 05:07:05;;;;;;;;;18.00;16.25;;;;;;;;5071063;28;49756;-66
2021/11/26 05:09:31;;;;;;;;;23.50;20.50;;;;;;;;5069688;28;49763;-66
2021/11/26 05:11:56;;;;;;;;;18.00;16.75;;;;;;;;5070761;27;51736;-67
2021/11/26 05:14:23;;;;;;;;;19.75;18.75;;;;;;;;5070751;28;49933;-69
2021/11/26 05:16:49;;;;;;;;;20.25;16.00;;;;;;;;5070725;27;49972;-67
2021/11/26 05:19:14;;;;;;;;;17.25;16.75;;;;;;;;5070724;27;49858;-66
2021/11/26 05:21:39;;;;;;;;;20.50;18.00;;;;;;;;5070334;28;49726;-67
2021/11/26 05:24:04;;;;;;;;;14.25;14.00;;;;;;;;5070625;27;49772;-67
2021/11/26 05:26:29;;;;;;;;;17.50;17.50;;;;;;;;5070789;27;49663;-67
2021/11/26 05:28:55;;;;;;;;;21.25;19.25;;;;;;;;5070909;27;49703;-67
2021/11/26 05:31:20;;;;;;;;;17.50;15.00;;;;;;;;5070301;28;50356;-66
2021/11/26 05:33:46;;;;;;;;;23.25;21.50;;;;;;;;5070235;27;49714;-67
2021/11/26 05:36:11;;;;;;;;;22.00;20.75;;;;;;;;5070633;28;49522;-68
2021/11/26 05:38:36;;;;;;;;;20.00;19.50;;;;;;;;5070838;27;49997;-66
2021/11/26 05:41:01;;;;;;;;;18.25;18.25;;;;;;;;5070359;27;49918;-66
2021/11/26 05:43:27;;;;;;;;;26.50;22.00;;;;;;;;5070622;27;49758;-67
2021/11/26 05:45:52;;;;;;;;;20.25;17.25;;;;;;;;5070549;28;49935;-69
2021/11/26 05:48:17;;;;;;;;;20.00;17.50;;;;;;;;5070294;27;49793;-66
2021/11/26 05:50:42;;;;;;;;;13.75;13.00;;;;;;;;5070103;27;49797;-75
2021/11/26 05:53:08;;;;;;;;;16.00;14.50;;;;;;;;5070011;27;49845;-66
2021/11/26 05:55:33;;;;;;;;;16.00;15.00;;;;;;;;5070383;27;49786;-66
2021/11/26 05:57:59;;;;;;;;;16.50;16.50;;;;;;;;5070560;27;49950;-66
2021/11/26 06:00:26;;;;;;;;;18.00;16.25;;;;;;;;5070009;27;50774;-66
2021/11/26 06:02:51;;;;;;;;;20.00;15.00;;;;;;;;5070454;27;49880;-66
2021/11/26 06:05:17;;;;;;;;;13.00;13.00;;;;;;;;5069989;27;49762;-66
2021/11/26 06:07:42;;;;;;;;;19.75;16.25;;;;;;;;5070326;27;49872;-66
2021/11/26 06:10:10;;;;;;;;;16.25;14.00;;;;;;;;5070026;28;49890;-66
2021/11/26 06:12:36;;;;;;;;;14.25;10.75;;;;;;;;5070118;27;49018;-67
2021/11/26 06:15:01;;;;;;;;;14.75;12.25;;;;;;;;5069924;27;49949;-66
2021/11/26 06:17:27;;;;;;;;;14.00;11.25;;;;;;;;5070352;27;49980;-67
2021/11/26 06:19:52;;;;;;;;;17.75;15.00;;;;;;;;5069753;27;50791;-67
2021/11/26 06:22:17;;;;;;;;;14.00;10.75;;;;;;;;5069699;27;49560;-68
2021/11/26 06:24:43;;;;;;;;;24.50;17.25;;;;;;;;5070137;28;49807;-66
2021/11/26 06:27:08;;;;;;;;;15.00;11.00;;;;;;;;5070237;27;49720;-66
2021/11/26 06:29:33;;;;;;;;;19.50;14.25;;;;;;;;5072790;28;50520;-70
2021/11/26 06:31:58;;;;;;;;;15.50;14.50;;;;;;;;5073262;28;49609;-67
2021/11/26 06:34:24;;;;;;;;;17.25;12.25;;;;;;;;5073335;28;49746;-63
2021/11/26 06:36:49;;;;;;;;;17.75;14.25;;;;;;;;5073492;28;49821;-64
2021/11/26 06:39:14;;;;;;;;;13.25;11.00;;;;;;;;5072959;27;49820;-61
2021/11/26 06:41:39;;;;;;;;;11.25;11.25;;;;;;;;5073390;27;49934;-63
2021/11/26 06:44:05;;;;;;;;;13.75;13.75;;;;;;;;5073108;27;49947;-62
2021/11/26 06:46:30;;;;;;;;;13.50;13.50;;;;;;;;5073256;27;49914;-62
2021/11/26 06:48:55;;;;;;;;;20.50;17.25;;;;;;;;5072450;27;50340;-64
2021/11/26 06:51:20;;;;;;;;;11.00;11.00;;;;;;;;5072900;28;49648;-65
2021/11/26 06:53:46;;;;;;;;;15.75;13.50;;;;;;;;5073183;27;49913;-64
2021/11/26 06:56:11;;;;;;;;;16.50;14.25;;;;;;;;5073071;28;49818;-65
2021/11/26 06:58:36;;;;;;;;;15.00;13.75;;;;;;;;5072706;27;49796;-70
2021/11/26 07:01:01;;;;;;;;;15.50;14.50;;;;;;;;5076309;28;49643;-64
2021/11/26 07:03:27;;;;;;;;;14.75;14.75;;;;;;;;5082238;27;49985;-65
2021/11/26 07:05:52;;;;;;;;;10.25;9.50;;;;;;;;5073344;28;49649;-65
2021/11/26 07:08:18;;;;;;;;;15.00;14.25;;;;;;;;5073320;28;50748;-64
2021/11/26 07:10:44;;;;;;;;;11.75;10.75;;;;;;;;5072833;27;49773;-72
2021/11/26 07:13:09;;;;;;;;;21.25;15.25;;;;;;;;5079834;27;49471;-70
2021/11/26 07:15:34;;;;;;;;;19.50;14.50;;;;;;;;5073861;27;49719;-69
2021/11/26 07:18:00;;;;;;;;;14.00;14.00;;;;;;;;5071089;28;51687;-77
2021/11/26 07:20:25;;;;;;;;;16.00;13.25;;;;;;;;5073807;28;49715;-74
2021/11/26 07:22:50;;;;;;;;;15.00;12.25;;;;;;;;5072408;28;49920;-72
2021/11/26 07:25:18;;;;;;;;;15.25;13.50;;;;;;;;5072388;27;49689;-76
2021/11/26 07:27:44;;;;;;;;;16.25;15.25;;;;;;;;5077499;28;51633;-74
2021/11/26 07:30:10;;;;;;;;;12.50;11.50;;;;;;;;5073311;27;49693;-68
2021/11/26 07:32:36;;;;;;;;;14.50;14.50;;;;;;;;5071925;27;49667;-73
2021/11/26 07:35:01;;;;;;;;;18.00;14.00;;;;;;;;5070753;28;50048;-75
2021/11/26 07:37:26;;;;;;;;;14.75;13.75;;;;;;;;5067628;28;52120;-75
2021/11/26 07:39:52;;;;;;;;;14.00;12.00;;;;;;;;5070756;28;49876;-73
2021/11/26 07:42:18;;;;;;;;;17.25;14.75;;;;;;;;5069482;28;49888;-69
2021/11/26 07:44:43;;;;;;;;;14.50;11.25;;;;;;;;5072286;28;49735;-67
2021/11/26 07:47:11;;;;;;;;;16.75;15.75;;;;;;;;5071992;28;50351;-70
2021/11/26 07:49:37;;;;;;;;;20.25;17.50;;;;;;;;5071621;28;49735;-71
2021/11/26 07:52:03;;;;;;;;;18.00;15.00;;;;;;;;5072093;28;49750;-72
2021/11/26 07:54:28;;;;;;;;;14.75;13.75;;;;;;;;5071689;28;49695;-67
2021/11/26 07:56:53;;;;;;;;;14.50;13.50;;;;;;;;5069088;28;49916;-62
2021/11/26 07:59:19;;;;;;;;;15.25;15.25;;;;;;;;5067423;27;50229;-66
2021/11/26 08:01:45;;;;;;;;;17.25;14.75;;;;;;;;5071396;28;49681;-64
2021/11/26 08:04:10;;;;;;;;;14.25;11.00;;;;;;;;5072089;28;49939;-77
2021/11/26 08:06:36;;;;;;;;;12.75;11.00;;;;;;;;5071512;28;50599;-67
2021/11/26 08:09:02;;;;;;;;;16.00;15.25;;;;;;;;5069621;28;49805;-64
2021/11/26 08:11:27;;;;;;;;;14.25;12.75;;;;;;;;5069536;28;49691;-64
2021/11/26 08:13:54;;;;;;;;;15.00;14.00;;;;;;;;5070047;28;49621;-65
2021/11/26 08:16:19;;;;;;;;;10.00;9.25;;;;;;;;5068203;28;50581;-63
2021/11/26 08:18:44;;;;;;;;;13.75;13.50;;;;;;;;5069396;27;49978;-64
2021/11/26 08:21:09;;;;;;;;;11.75;11.25;;;;;;;;5068377;28;50028;-64
2021/11/26 08:23:35;;;;;;;;;10.25;10.25;;;;;;;;5070080;28;49797;-65
2021/11/26 08:26:00;;;;;;;;;14.75;10.75;;;;;;;;5070871;28;50807;-65
2021/11/26 08:28:28;;;;;;;;;16.75;15.25;;;;;;;;5071429;28;50149;-65
2021/11/26 08:30:55;;;;;;;;;11.00;10.00;;;;;;;;5071647;28;49852;-64
2021/11/26 08:33:20;;;;;;;;;14.00;11.00;;;;;;;;5069950;28;49835;-78
2021/11/26 08:35:48;;;;;;;;;17.50;14.25;;;;;;;;5071012;28;50314;-71
2021/11/26 08:38:13;;;;;;;;;16.50;12.75;;;;;;;;5071386;28;49739;-75
2021/11/26 08:40:38;;;;;;;;;10.50;10.00;;;;;;;;5071433;28;49656;-71
2021/11/26 08:43:04;;;;;;;;;10.00;9.50;;;;;;;;5071729;28;49778;-63
2021/11/26 08:45:29;;;;;;;;;8.50;8.50;;;;;;;;5071247;28;49807;-77
2021/11/26 08:47:54;;;;;;;;;14.00;9.50;;;;;;;;5071092;28;49967;-66
2021/11/26 08:50:21;;;;;;;;;8.00;7.00;;;;;;;;5070830;28;49805;-71
2021/11/26 08:52:47;;;;;;;;;15.25;11.75;;;;;;;;5070737;27;49925;-76
2021/11/26 08:55:15;;;;;;;;;8.25;8.25;;;;;;;;5070759;27;49849;-65
2021/11/26 08:57:46;;;;;;;;;7.00;6.00;;;;;;;;5071212;28;49835;-69
2021/11/26 09:00:12;;;;;;;;;8.25;8.25;;;;;;;;5071126;28;49675;-66
2021/11/26 09:02:37;;;;;;;;;10.00;7.00;;;;;;;;5071216;28;49756;-77
2021/11/26 09:05:02;;;;;;;;;13.75;9.00;;;;;;;;5070049;27;50046;-63
2021/11/26 09:07:28;;;;;;;;;12.50;11.50;;;;;;;;5070709;28;49637;-66
2021/11/26 09:09:54;;;;;;;;;8.25;7.50;;;;;;;;5069164;28;49567;-78
2021/11/26 09:12:20;;;;;;;;;8.75;7.25;;;;;;;;5071726;28;49982;-65
2021/11/26 09:14:45;;;;;;;;;10.50;7.75;;;;;;;;5071209;28;49647;-66
2021/11/26 09:17:11;;;;;;;;;9.50;7.00;;;;;;;;5071443;28;50426;-78
2021/11/26 09:19:36;;;;;;;;;9.50;8.25;;;;;;;;5070818;28;49621;-71
2021/11/26 09:22:01;;;;;;;;;11.25;9.50;;;;;;;;5071029;28;49688;-78
2021/11/26 09:24:26;;;;;;;;;10.00;8.00;;;;;;;;5070977;28;49743;-63
2021/11/26 09:26:52;;;;;;;;;8.00;7.50;;;;;;;;5070940;28;49993;-72
2021/11/26 09:29:17;;;;;;;;;6.25;6.00;;;;;;;;5070633;28;49955;-80
2021/11/26 09:31:42;;;;;;;;;8.00;6.50;;;;;;;;5070765;28;49692;-63
2021/11/26 09:34:07;;;;;;;;;7.50;7.50;;;;;;;;5070156;28;49770;-69
2021/11/26 09:36:35;;;;;;;;;7.00;5.50;;;;;;;;5070645;28;49892;-63
2021/11/26 09:39:01;;;;;;;;;4.50;4.25;;;;;;;;5070149;28;49738;-75
2021/11/26 09:41:27;;;;;;;;;3.50;2.50;;;;;;;;5070398;27;49874;-71
2021/11/26 09:43:52;;;;;;;;;8.75;5.75;;;;;;;;5070346;28;49782;-77
2021/11/26 09:46:19;;;;;;;;;7.00;6.50;;;;;;;;5070549;28;49678;-66
2021/11/26 09:48:45;;;;;;;;;4.75;4.75;;;;;;;;5070300;28;49883;-63
2021/11/26 09:51:11;;;;;;;;;3.25;3.25;;;;;;;;5070615;28;50095;-78
2021/11/26 09:53:37;;;;;;;;;6.75;4.00;;;;;;;;5070414;28;49805;-82
2021/11/26 09:56:04;;;;;;;;;7.00;4.25;;;;;;;;5070625;28;49703;-65
2021/11/26 09:58:31;;;;;;;;;7.00;7.00;;;;;;;;5070132;28;49687;-65
2021/11/26 10:00:57;;;;;;;;;4.25;4.25;;;;;;;;5070581;28;49613;-80
2021/11/26 10:03:23;;;;;;;;;5.50;4.25;;;;;;;;5069559;28;51031;-64
2021/11/26 10:05:48;;;;;;;;;5.25;3.75;;;;;;;;5072356;28;49794;-79
2021/11/26 10:08:23;;;;;;;;;5.50;3.25;;;;;;;;5073799;28;49927;-69
2021/11/26 10:10:49;;;;;;;;;4.25;4.25;;;;;;;;5073876;28;49760;-67
2021/11/26 10:13:16;;;;;;;;;8.00;6.75;;;;;;;;5073421;28;50707;-63
2021/11/26 10:15:43;;;;;;;;;6.25;5.50;;;;;;;;5073683;28;49725;-65
2021/11/26 10:18:12;;;;;;;;;6.00;6.00;;;;;;;;5073348;28;49872;-74
2021/11/26 10:20:50;;;;;;;;;4.75;4.75;;;;;;;;5073584;28;49893;-76
2021/11/26 10:23:20;;;;;;;;;6.75;4.00;;;;;;;;5073251;28;50672;-66
2021/11/26 10:25:45;;;;;;;;;2.75;2.75;;;;;;;;5073521;28;49545;-65
2021/11/26 10:28:10;;;;;;;;;2.00;2.00;;;;;;;;5073459;28;49803;-77
2021/11/26 10:30:39;;;;;;;;;5.00;3.00;;;;;;;;5073491;28;49762;-71
2021/11/26 10:33:18;;;;;;;;;4.25;3.75;;;;;;;;5072760;28;50293;-65
2021/11/26 10:35:55;;;;;;;;;4.00;2.00;;;;;;;;5073070;28;49819;-72
2021/11/26 10:38:23;;;;;;;;;3.50;2.50;;;;;;;;5073281;28;49632;-74
2021/11/26 10:40:53;;;;;;;;;3.25;3.25;;;;;;;;5073208;28;50039;-69
2021/11/26 10:43:33;;;;;;;;;4.00;4.00;;;;;;;;5072904;28;50487;-66
2021/11/26 10:59:02;;;;;;;;;2.50;2.00;;;;;;;;5072803;28;49774;-64
2021/11/26 11:01:27;;;;;;;;;4.50;3.50;;;;;;;;5073020;28;49785;-65
2021/11/26 11:03:53;;;;;;;;;7.75;3.00;;;;;;;;5072498;28;49840;-64
2021/11/26 11:06:23;;;;;;;;;7.25;3.75;;;;;;;;5073525;28;49892;-75
2021/11/26 11:08:58;;;;;;;;;3.75;3.00;;;;;;;;5072872;27;49773;-72
2021/11/26 11:11:23;;;;;;;;;4.00;4.00;;;;;;;;5072824;27;50005;-65
2021/11/26 11:13:48;;;;;;;;;6.00;6.00;;;;;;;;5072595;28;50449;-73
2021/11/26 11:16:13;;;;;;;;;6.00;5.75;;;;;;;;5072337;28;49828;-71
2021/11/26 11:18:39;;;;;;;;;2.25;2.25;;;;;;;;5072197;28;49654;-69
2021/11/26 11:21:05;;;;;;;;;9.75;6.25;;;;;;;;5072490;28;49871;-63
2021/11/26 11:23:30;;;;;;;;;5.25;3.00;;;;;;;;5072429;27;50752;-64
2021/11/26 11:25:57;;;;;;;;;5.00;3.50;;;;;;;;5072621;28;49600;-79
2021/11/26 11:28:22;;;;;;;;;5.50;3.75;;;;;;;;5072077;27;49566;-63
2021/11/26 11:30:47;;;;;;;;;5.75;5.00;;;;;;;;5073306;28;49647;-64
2021/11/26 11:33:13;;;;;;;;;3.00;3.00;;;;;;;;5072855;28;50314;-71
2021/11/26 11:35:40;;;;;;;;;3.00;3.00;;;;;;;;5073059;28;50011;-77
2021/11/26 11:38:08;;;;;;;;;3.75;3.00;;;;;;;;5072513;28;49780;-74
2021/11/26 11:40:36;;;;;;;;;3.50;3.00;;;;;;;;5072415;28;49909;-74
2021/11/26 11:43:09;;;;;;;;;2.75;2.75;;;;;;;;5071890;28;50693;-71
2021/11/26 11:45:35;;;;;;;;;8.00;6.75;;;;;;;;5073484;28;49900;-68
2021/11/26 11:48:03;;;;;;;;;5.50;3.00;;;;;;;;5070581;28;49686;-74
2021/11/26 11:50:31;;;;;;;;;5.50;3.00;;;;;;;;5071857;28;49949;-77
2021/11/26 11:52:58;;;;;;;;;2.50;2.50;;;;;;;;5070504;28;50995;-73
2021/11/26 11:55:29;;;;;;;;;3.75;3.75;;;;;;;;5072038;28;49779;-72
2021/11/26 11:58:22;;;;;;;;;3.00;2.00;;;;;;;;5067847;28;49911;-64
2021/11/26 12:00:52;;;;;;;;;4.50;3.25;;;;;;;;5066854;28;49626;-79
2021/11/26 12:03:18;;;;;;;;;6.50;2.50;;;;;;;;5070189;28;52760;-64
2021/11/26 12:05:57;;;;;;;;;6.00;6.00;;;;;;;;5071805;27;49761;-73
2021/11/26 12:08:23;;;;;;;;;4.00;4.00;;;;;;;;5070201;28;49777;-77
2021/11/26 12:10:53;;;;;;;;;2.50;2.50;;;;;;;;5070146;28;49601;-65
2021/11/26 12:13:23;;;;;;;;;5.25;4.00;;;;;;;;5070245;28;51528;-79
2021/11/26 12:15:50;;;;;;;;;4.50;4.50;;;;;;;;5071591;28;49666;-70
2021/11/26 12:18:15;;;;;;;;;5.50;3.25;;;;;;;;5071284;27;49769;-76
2021/11/26 12:20:42;;;;;;;;;7.50;4.50;;;;;;;;5070216;28;49905;-74
2021/11/26 12:23:24;;;;;;;;;2.00;2.00;;;;;;;;5071035;27;50465;-72
2021/11/26 12:28:49;;;;;;;;;2.50;2.00;;;;;;;;5070438;28;49655;-78
2021/11/26 12:31:14;;;;;;;;;5.50;3.75;;;;;;;;5069989;28;50205;-74
2021/11/26 12:33:39;;;;;;;;;7.00;3.75;;;;;;;;5069247;28;51194;-77
2021/11/26 12:36:06;;;;;;;;;5.00;4.00;;;;;;;;5069171;28;49739;-76
2021/11/26 12:38:43;;;;;;;;;8.00;4.00;;;;;;;;5070098;28;49673;-73
2021/11/26 12:41:09;;;;;;;;;6.50;5.00;;;;;;;;5069670;28;49948;-78
2021/11/26 12:43:42;;;;;;;;;2.00;2.00;;;;;;;;5069733;28;51333;-70
2021/11/26 12:46:27;;;;;;;;;3.50;3.00;;;;;;;;5069689;28;49928;-79
2021/11/26 12:52:04;;;;;;;;;3.50;3.50;;;;;;;;5050697;27;49964;-79
2021/11/26 12:54:31;;;;;;;;;3.50;3.25;;;;;;;;5069121;28;51617;-77
2021/11/26 12:56:58;;;;;;;;;3.50;3.00;;;;;;;;5069553;28;49836;-78
2021/11/26 12:59:43;;;;;;;;;3.50;2.25;;;;;;;;5069490;28;49910;-76
2021/11/26 13:02:09;;;;;;;;;4.25;2.75;;;;;;;;5069861;28;50129;-69
2021/11/26 13:04:45;;;;;;;;;5.00;4.50;;;;;;;;5069140;28;51297;-67
2021/11/26 13:07:10;;;;;;;;;2.25;2.25;;;;;;;;5069532;28;49930;-67
2021/11/26 13:10:02;;;;;;;;;6.00;3.75;;;;;;;;5070272;28;49847;-80
2021/11/26 13:12:30;;;;;;;;;3.00;3.00;;;;;;;;5054482;28;49640;-73
2021/11/26 13:14:56;;;;;;;;;4.00;3.00;;;;;;;;5068954;28;52348;-66
2021/11/26 13:17:23;;;;;;;;;2.50;2.50;;;;;;;;5069114;28;49828;-73
2021/11/26 13:19:55;;;;;;;;;2.25;2.25;;;;;;;;5070678;28;49751;-76
2021/11/26 13:22:20;;;;;;;;;6.25;5.00;;;;;;;;5069447;28;50044;-70
2021/11/26 13:24:49;;;;;;;;;2.00;2.00;;;;;;;;5069011;28;51820;-79
2021/11/26 13:27:14;;;;;;;;;3.00;3.00;;;;;;;;5068879;28;49898;-65
2021/11/26 13:29:40;;;;;;;;;5.75;3.75;;;;;;;;5069684;28;49942;-68
2021/11/26 13:32:05;;;;;;;;;4.75;3.50;;;;;;;;5070950;28;49734;-68
2021/11/26 13:34:30;;;;;;;;;2.00;2.00;;;;;;;;5071681;28;50180;-62
2021/11/26 13:36:56;;;;;;;;;4.75;4.00;;;;;;;;5070515;28;49625;-64
2021/11/26 13:39:25;;;;;;;;;2.75;2.75;;;;;;;;5072444;28;49759;-66
2021/11/26 13:41:54;;;;;;;;;4.50;3.50;;;;;;;;5074422;28;49633;-65
2021/11/26 13:44:22;;;;;;;;;4.00;4.00;;;;;;;;5074303;28;50329;-63
2021/11/26 13:46:49;;;;;;;;;4.75;4.00;;;;;;;;5074437;28;49938;-77
2021/11/26 13:49:15;;;;;;;;;3.75;2.50;;;;;;;;5074316;28;49705;-71
2021/11/26 13:51:49;;;;;;;;;6.25;6.00;;;;;;;;5074106;28;49891;-69
2021/11/26 13:54:16;;;;;;;;;3.00;3.00;;;;;;;;5073710;28;50701;-72
2021/11/26 13:56:43;;;;;;;;;3.50;3.00;;;;;;;;5073608;28;49756;-62
2021/11/26 13:59:10;;;;;;;;;3.50;3.50;;;;;;;;5073977;28;50077;-72
2021/11/26 14:01:37;;;;;;;;;5.00;5.00;;;;;;;;5074294;28;49676;-68
2021/11/26 14:04:03;;;;;;;;;3.75;3.75;;;;;;;;5073717;28;49763;-77
2021/11/26 14:06:30;;;;;;;;;6.25;3.25;;;;;;;;5075757;28;49741;-62
2021/11/26 14:08:56;;;;;;;;;4.50;3.00;;;;;;;;5073950;28;49827;-72
2021/11/26 14:11:27;;;;;;;;;4.00;3.00;;;;;;;;5074208;28;49757;-77
2021/11/26 14:13:53;;;;;;;;;6.50;5.00;;;;;;;;5073299;28;50318;-72
2021/11/26 14:16:20;;;;;;;;;2.00;2.00;;;;;;;;5073835;28;49816;-64
2021/11/26 14:18:49;;;;;;;;;2.50;2.50;;;;;;;;5074533;28;49723;-63
2021/11/26 14:21:17;;;;;;;;;4.00;4.00;;;;;;;;5074810;28;49654;-64
2021/11/26 14:24:11;;;;;;;;;3.00;3.00;;;;;;;;5075871;28;49889;-72
2021/11/26 14:26:37;;;;;;;;;2.00;2.00;;;;;;;;5064182;28;49744;-77
2021/11/26 14:29:05;;;;;;;;;4.00;4.00;;;;;;;;5073484;28;49740;-73
2021/11/26 14:31:31;;;;;;;;;3.75;3.25;;;;;;;;5075227;28;49525;-71
2021/11/26 14:34:12;;;;;;;;;6.75;5.00;;;;;;;;5073020;28;50461;-70
2021/11/26 14:36:38;;;;;;;;;7.00;4.25;;;;;;;;5074376;28;49711;-73
2021/11/26 14:39:05;;;;;;;;;5.00;3.00;;;;;;;;5074257;28;49640;-61
2021/11/26 14:41:30;;;;;;;;;6.75;5.00;;;;;;;;5063579;27;50203;-81
2021/11/26 14:44:04;;;;;;;;;3.00;3.00;;;;;;;;5071179;27;50200;-67